createdAt,value
2023-06-17T00:01:35.395Z,98369.25
2023-06-17T00:04:03.629Z,98369.25
2023-06-17T00:06:30.409Z,98356.16
2023-06-17T00:08:56.922Z,98361.47
2023-06-17T00:11:23.652Z,98358.94
2023-06-17T00:13:50.265Z,98355.63
2023-06-17T00:16:18.559Z,98351.38
2023-06-17T00:18:45.151Z,98351.63
2023-06-17T00:21:11.938Z,98355.03
2023-06-17T00:23:38.601Z,98351.91
2023-06-17T00:26:05.789Z,98344.66
2023-06-17T00:28:32.657Z,98346.22
2023-06-17T00:30:59.234Z,98339.06
2023-06-17T00:33:25.973Z,98341.72
2023-06-17T00:35:55.692Z,98347.84
2023-06-17T00:38:22.632Z,98348.69
2023-06-17T00:40:49.269Z,98347.00
2023-06-17T00:43:16.315Z,98349.53
2023-06-17T00:45:43.016Z,98352.25
2023-06-17T00:48:11.584Z,98343.47
2023-06-17T00:50:38.828Z,98351.53
2023-06-17T00:53:06.812Z,98347.09
2023-06-17T00:55:34.924Z,98349.53
2023-06-17T00:58:02.018Z,98347.00
2023-06-17T01:00:29.358Z,98346.13
2023-06-17T01:02:58.191Z,98344.25
2023-06-17T01:05:26.127Z,98339.81
2023-06-17T01:08:15.478Z,98339.22
2023-06-17T01:10:46.802Z,98333.94
2023-06-17T01:13:17.198Z,98337.25
2023-06-17T01:15:45.074Z,98336.25
2023-06-17T01:18:13.119Z,98328.22
2023-06-17T01:20:41.834Z,98324.00
2023-06-17T01:23:12.082Z,98336.50
2023-06-17T01:25:40.874Z,98338.50
2023-06-17T01:28:18.223Z,98333.41
2023-06-17T01:30:46.315Z,98329.75
2023-06-17T01:33:15.075Z,98324.13
2023-06-17T01:36:09.021Z,98328.63
2023-06-17T01:38:40.838Z,98318.31
2023-06-17T01:41:50.550Z,98327.06
2023-06-17T01:44:18.338Z,98325.47
2023-06-17T01:46:46.624Z,98325.47
2023-06-17T01:49:13.331Z,98324.75
2023-06-17T01:51:40.121Z,98318.53
2023-06-17T01:54:06.976Z,98320.56
2023-06-17T01:56:34.021Z,98310.91
2023-06-17T01:59:00.690Z,98318.97
2023-06-17T02:01:27.376Z,98315.53
2023-06-17T02:03:54.218Z,98319.78
2023-06-17T02:06:20.956Z,98315.41
2023-06-17T02:08:48.933Z,98319.09
2023-06-17T02:11:16.205Z,98318.19
2023-06-17T02:13:42.856Z,98324.25
2023-06-17T02:16:10.309Z,98330.47
2023-06-17T02:18:37.024Z,98323.47
2023-06-17T02:21:03.810Z,98327.72
2023-06-17T02:23:30.738Z,98327.72
2023-06-17T02:25:57.875Z,98331.22
2023-06-17T02:28:24.459Z,98322.28
2023-06-17T02:30:51.236Z,98312.69
2023-06-17T02:33:19.636Z,98323.28
2023-06-17T02:35:46.335Z,98316.47
2023-06-17T02:38:14.516Z,98318.31
2023-06-17T02:40:41.493Z,98318.06
2023-06-17T02:43:08.421Z,98319.09
2023-06-17T02:45:35.132Z,98317.31
2023-06-17T02:48:01.979Z,98327.81
2023-06-17T02:50:28.813Z,98314.34
2023-06-17T02:52:57.449Z,98314.34
2023-06-17T02:55:26.545Z,98314.28
2023-06-17T02:57:53.378Z,98309.72
2023-06-17T03:00:20.433Z,98307.78
2023-06-17T03:02:48.653Z,98309.59
2023-06-17T03:05:15.713Z,98311.31
2023-06-17T03:07:43.353Z,98303.25
2023-06-17T03:10:10.339Z,98305.00
2023-06-17T03:12:37.126Z,98311.91
2023-06-17T03:15:04.275Z,98306.69
2023-06-17T03:17:31.147Z,98315.47
2023-06-17T03:19:58.407Z,98314.72
2023-06-17T03:22:25.151Z,98314.72
2023-06-17T03:24:52.230Z,98304.75
2023-06-17T03:27:18.841Z,98304.97
2023-06-17T03:29:45.534Z,98309.44
2023-06-17T03:32:12.267Z,98301.50
2023-06-17T03:34:38.928Z,98298.06
2023-06-17T03:37:05.995Z,98305.16
2023-06-17T03:39:32.795Z,98310.38
2023-06-17T03:41:59.392Z,98301.50
2023-06-17T03:44:25.961Z,98299.13
2023-06-17T03:46:52.741Z,98297.41
2023-06-17T03:49:19.425Z,98292.97
2023-06-17T03:51:46.200Z,98297.41
2023-06-17T03:54:13.103Z,98297.91
2023-06-17T03:56:40.907Z,98297.50
2023-06-17T03:59:07.586Z,98297.22
2023-06-17T04:01:34.473Z,98289.66
2023-06-17T04:04:01.269Z,98284.34
2023-06-17T04:06:28.021Z,98287.09
2023-06-17T04:08:57.459Z,98285.66
2023-06-17T04:11:24.044Z,98295.28
2023-06-17T04:13:50.855Z,98294.06
2023-06-17T04:16:17.605Z,98298.44
2023-06-17T04:18:44.304Z,98288.69
2023-06-17T04:21:11.898Z,98285.97
2023-06-17T04:23:41.091Z,98291.41
2023-06-17T04:26:08.113Z,98299.84
2023-06-17T04:28:35.667Z,98301.84
2023-06-17T04:31:02.667Z,98298.59
2023-06-17T04:33:32.048Z,98295.66
2023-06-17T04:35:58.911Z,98297.13
2023-06-17T04:38:25.737Z,98305.94
2023-06-17T04:40:54.236Z,98301.69
2023-06-17T04:43:24.298Z,98307.91
2023-06-17T04:45:51.675Z,98306.84
2023-06-17T04:48:18.488Z,98296.34
2023-06-17T04:50:45.210Z,98301.53
2023-06-17T04:53:12.097Z,98307.31
2023-06-17T04:55:39.024Z,98299.44
2023-06-17T04:58:05.899Z,98304.66
2023-06-17T05:00:32.656Z,98307.25
2023-06-17T05:02:59.651Z,98303.81
2023-06-17T05:05:26.431Z,98305.81
2023-06-17T05:07:53.146Z,98298.28
2023-06-17T05:10:20.295Z,98295.19
2023-06-17T05:12:47.038Z,98299.19
2023-06-17T05:15:13.877Z,98290.91
2023-06-17T05:17:42.704Z,98301.09
2023-06-17T05:20:11.394Z,98300.53
2023-06-17T05:22:38.072Z,98302.13
2023-06-17T05:25:05.186Z,98297.97
2023-06-17T05:27:31.866Z,98306.34
2023-06-17T05:29:58.567Z,98303.00
2023-06-17T05:32:26.480Z,98304.38
2023-06-17T05:34:53.406Z,98302.50
2023-06-17T05:37:20.088Z,98300.22
2023-06-17T05:39:46.863Z,98294.00
2023-06-17T05:42:13.601Z,98291.41
2023-06-17T05:44:41.116Z,98294.13
2023-06-17T05:47:07.799Z,98297.56
2023-06-17T05:49:34.558Z,98293.69
2023-06-17T05:52:01.638Z,98303.75
2023-06-17T05:54:28.268Z,98298.09
2023-06-17T05:56:55.082Z,98302.56
2023-06-17T05:59:21.846Z,98299.88
2023-06-17T06:01:48.776Z,98300.28
2023-06-17T06:04:15.767Z,98299.47
2023-06-17T06:06:42.332Z,98300.22
2023-06-17T06:09:08.974Z,98296.47
2023-06-17T06:11:36.024Z,98304.44
2023-06-17T06:14:02.684Z,98307.88
2023-06-17T06:16:29.491Z,98304.44
2023-06-17T06:18:56.036Z,98303.06
2023-06-17T06:21:22.773Z,98301.47
2023-06-17T06:23:50.576Z,98305.53
2023-06-17T06:26:17.246Z,98300.66
2023-06-17T06:28:44.199Z,98294.94
2023-06-17T06:31:12.035Z,98305.31
2023-06-17T06:33:38.813Z,98308.50
2023-06-17T06:36:06.085Z,98312.31
2023-06-17T06:38:32.682Z,98309.38
2023-06-17T06:40:59.458Z,98319.22
2023-06-17T06:43:26.029Z,98316.78
2023-06-17T06:45:53.315Z,98313.50
2023-06-17T06:48:20.053Z,98320.88
2023-06-17T06:50:46.747Z,98326.25
2023-06-17T06:53:13.350Z,98321.66
2023-06-17T06:55:40.147Z,98326.25
2023-06-17T06:58:06.898Z,98322.91
2023-06-17T07:00:33.616Z,98328.75
2023-06-17T07:03:00.516Z,98327.91
2023-06-17T07:05:27.902Z,98324.88
2023-06-17T07:07:54.476Z,98331.53
2023-06-17T07:10:21.461Z,98325.72
2023-06-17T07:12:48.351Z,98331.56
2023-06-17T07:15:15.529Z,98331.06
2023-06-17T07:17:42.139Z,98332.38
2023-06-17T07:20:09.861Z,98329.44
2023-06-17T07:22:36.711Z,98334.47
2023-06-17T07:25:04.304Z,98335.69
2023-06-17T07:27:31.103Z,98327.22
2023-06-17T07:29:57.842Z,98328.72
2023-06-17T07:32:24.706Z,98336.09
2023-06-17T07:34:51.867Z,98335.91
2023-06-17T07:37:18.483Z,98339.47
2023-06-17T07:39:48.349Z,98330.03
2023-06-17T07:42:16.819Z,98331.94
2023-06-17T07:44:45.143Z,98336.50
2023-06-17T07:47:12.079Z,98333.84
2023-06-17T07:49:39.652Z,98333.41
2023-06-17T07:52:06.511Z,98324.34
2023-06-17T07:54:36.721Z,98330.22
2023-06-17T07:57:04.527Z,98334.88
2023-06-17T07:59:31.281Z,98331.06
2023-06-17T08:01:58.313Z,98332.06
2023-06-17T08:04:25.015Z,98328.97
2023-06-17T08:06:52.488Z,98330.59
2023-06-17T08:09:19.047Z,98326.28
2023-06-17T08:11:45.776Z,98325.81
2023-06-17T08:14:12.427Z,98328.47
2023-06-17T08:16:39.244Z,98317.09
2023-06-17T08:19:06.290Z,98323.88
2023-06-17T08:21:33.199Z,98323.41
2023-06-17T08:24:16.853Z,98316.72
2023-06-17T08:26:45.214Z,98327.91
2023-06-17T08:29:14.363Z,98318.53
2023-06-17T08:31:45.349Z,98321.00
2023-06-17T08:34:12.866Z,98319.03
2023-06-17T08:36:45.084Z,98317.66
2023-06-17T08:39:12.173Z,98311.22
2023-06-17T08:41:41.490Z,98317.84
2023-06-17T08:44:11.288Z,98315.88
2023-06-17T08:46:39.047Z,98321.03
2023-06-17T08:49:11.528Z,98315.03
2023-06-17T08:51:38.458Z,98318.94
2023-06-17T08:54:06.022Z,98315.19
2023-06-17T08:56:33.076Z,98318.19
2023-06-17T08:59:00.638Z,98316.41
2023-06-17T09:01:28.583Z,98308.97
2023-06-17T09:03:55.802Z,98314.59
2023-06-17T09:06:27.598Z,98319.94
2023-06-17T09:08:57.224Z,98312.91
2023-06-17T09:11:28.676Z,98318.28
2023-06-17T09:13:57.369Z,98319.78
2023-06-17T09:16:30.469Z,98317.78
2023-06-17T09:18:58.824Z,98315.16
2023-06-17T09:21:26.451Z,98316.88
2023-06-17T09:24:00.688Z,98305.41
2023-06-17T09:26:31.502Z,98302.56
2023-06-17T09:29:16.741Z,98306.44
2023-06-17T09:31:54.215Z,98305.41
2023-06-17T09:34:22.366Z,98307.03
2023-06-17T09:37:04.687Z,98295.72
2023-06-17T09:39:33.276Z,98300.03
2023-06-17T09:42:10.430Z,98301.94
2023-06-17T09:44:41.305Z,98295.84
2023-06-17T09:47:09.473Z,98293.50
2023-06-17T09:49:37.912Z,98291.28
2023-06-17T09:52:10.498Z,98304.97
2023-06-17T09:54:38.318Z,98288.38
2023-06-17T09:57:08.877Z,98298.44
2023-06-17T09:59:35.612Z,98302.22
2023-06-17T10:02:02.213Z,98290.91
2023-06-17T10:04:28.816Z,98290.78
2023-06-17T10:06:57.031Z,98289.50
2023-06-17T10:09:23.904Z,98286.38
2023-06-17T10:11:54.396Z,98284.16
2023-06-17T10:14:33.060Z,98282.94
2023-06-17T10:17:01.208Z,98278.47
2023-06-17T10:19:32.576Z,98282.28
2023-06-17T10:22:02.030Z,98276.50
2023-06-17T10:24:29.222Z,98272.88
2023-06-17T10:26:56.137Z,98275.97
2023-06-17T10:29:22.778Z,98264.03
2023-06-17T10:31:49.475Z,98264.91
2023-06-17T10:34:18.515Z,98261.31
2023-06-17T10:36:49.630Z,98254.19
2023-06-17T10:39:16.352Z,98262.97
2023-06-17T10:41:42.905Z,98253.72
2023-06-17T10:44:21.591Z,98255.50
2023-06-17T10:46:55.704Z,98249.19
2023-06-17T10:49:22.459Z,98252.94
2023-06-17T10:51:58.968Z,98257.69
2023-06-17T10:54:34.334Z,98250.34
2023-06-17T10:57:05.867Z,98242.69
2023-06-17T10:59:33.644Z,98252.28
2023-06-17T11:02:02.674Z,98251.00
2023-06-17T11:04:33.479Z,98242.09
2023-06-17T11:07:02.069Z,98239.41
2023-06-17T11:09:29.692Z,98241.66
2023-06-17T11:11:57.469Z,98240.25
2023-06-17T11:14:28.719Z,98247.38
2023-06-17T11:16:56.148Z,98235.19
2023-06-17T11:19:23.453Z,98233.41
2023-06-17T11:21:58.668Z,98237.84
2023-06-17T11:24:26.460Z,98236.50
2023-06-17T11:26:53.189Z,98231.38
2023-06-17T11:29:20.246Z,98227.06
2023-06-17T11:31:46.954Z,98231.09
2023-06-17T11:34:13.849Z,98224.81
2023-06-17T11:36:40.641Z,98225.13
2023-06-17T11:39:07.560Z,98230.53
2023-06-17T11:41:34.796Z,98224.69
2023-06-17T11:44:02.441Z,98224.66
2023-06-17T11:46:29.226Z,98222.50
2023-06-17T11:48:56.639Z,98220.06
2023-06-17T11:51:24.436Z,98224.00
2023-06-17T11:53:51.624Z,98216.41
2023-06-17T11:56:23.519Z,98216.41
2023-06-17T11:58:53.062Z,98222.25
2023-06-17T12:01:24.934Z,98214.75
2023-06-17T12:03:51.954Z,98214.44
2023-06-17T12:06:22.613Z,98210.22
2023-06-17T12:09:00.858Z,98211.75
2023-06-17T12:11:29.636Z,98202.75
2023-06-17T12:13:56.582Z,98196.69
2023-06-17T12:16:34.753Z,98202.78
2023-06-17T12:19:09.122Z,98204.66
2023-06-17T12:21:37.415Z,98184.84
2023-06-17T12:24:04.419Z,98197.50
2023-06-17T12:26:32.968Z,98190.94
2023-06-17T12:29:03.088Z,98191.75
2023-06-17T12:31:32.474Z,98197.03
2023-06-17T12:33:59.008Z,98190.38
2023-06-17T12:36:26.079Z,98180.97
2023-06-17T12:38:53.726Z,98187.44
2023-06-17T12:41:21.050Z,98178.94
2023-06-17T12:46:15.538Z,98179.44
2023-06-17T12:48:45.433Z,98179.59
2023-06-17T12:51:12.961Z,98164.59
2023-06-17T12:53:40.242Z,98167.00
2023-06-17T12:56:07.123Z,98166.47
2023-06-17T12:58:33.833Z,98164.47
2023-06-17T13:01:00.769Z,98164.78
2023-06-17T13:03:27.968Z,98158.94
2023-06-17T13:05:54.778Z,98161.00
2023-06-17T13:08:21.368Z,98156.84
2023-06-17T13:10:48.312Z,98151.28
2023-06-17T13:13:15.034Z,98140.25
2023-06-17T13:15:42.143Z,98153.97
2023-06-17T13:18:09.518Z,98162.16
2023-06-17T13:20:36.730Z,98151.91
2023-06-17T13:23:03.586Z,98150.31
2023-06-17T13:25:30.329Z,98164.16
2023-06-17T13:27:57.416Z,98151.88
2023-06-17T13:30:24.357Z,98147.41
2023-06-17T13:32:51.224Z,98155.84
2023-06-17T13:35:18.194Z,98146.78
2023-06-17T13:37:44.807Z,98147.25
2023-06-17T13:40:12.294Z,98136.50
2023-06-17T13:42:39.097Z,98144.75
2023-06-17T13:45:06.536Z,98133.22
2023-06-17T13:47:34.345Z,98143.41
2023-06-17T13:50:01.469Z,98142.97
2023-06-17T13:52:28.260Z,98149.47
2023-06-17T13:54:54.830Z,98149.16
2023-06-17T13:57:21.528Z,98144.38
2023-06-17T13:59:48.536Z,98145.72
2023-06-17T14:02:15.308Z,98146.25
2023-06-17T14:04:43.461Z,98143.09
2023-06-17T14:07:10.373Z,98137.91
2023-06-17T14:09:37.183Z,98143.41
2023-06-17T14:12:04.312Z,98144.09
2023-06-17T14:14:31.322Z,98132.13
2023-06-17T14:16:58.811Z,98141.00
2023-06-17T14:19:25.580Z,98140.00
2023-06-17T14:22:06.953Z,98132.50
2023-06-17T14:24:38.105Z,98135.00
2023-06-17T14:27:20.561Z,98135.50
2023-06-17T14:29:47.063Z,98133.66
2023-06-17T14:32:13.778Z,98134.59
2023-06-17T14:34:40.566Z,98130.47
2023-06-17T14:37:07.315Z,98131.22
2023-06-17T14:39:34.063Z,98131.06
2023-06-17T14:42:00.918Z,98123.69
2023-06-17T14:44:27.618Z,98122.41
2023-06-17T14:46:54.364Z,98125.59
2023-06-17T14:49:21.038Z,98119.50
2023-06-17T14:51:49.511Z,98129.78
2023-06-17T14:54:16.139Z,98126.34
2023-06-17T14:56:42.999Z,98126.22
2023-06-17T14:59:09.939Z,98132.00
2023-06-17T15:01:38.638Z,98128.06
2023-06-17T15:04:09.785Z,98131.75
2023-06-17T15:06:36.603Z,98133.88
2023-06-17T15:09:26.317Z,98130.34
2023-06-17T15:12:04.406Z,98125.25
2023-06-17T15:14:38.409Z,98128.63
2023-06-17T15:17:05.632Z,98119.84
2023-06-17T15:19:32.702Z,98111.81
2023-06-17T15:21:59.272Z,98111.94
2023-06-17T15:24:26.146Z,98113.69
2023-06-17T15:26:53.403Z,98113.31
2023-06-17T15:29:20.213Z,98123.22
2023-06-17T15:31:46.839Z,98114.44
2023-06-17T15:34:13.572Z,98118.25
2023-06-17T15:36:40.421Z,98118.13
2023-06-17T15:39:22.135Z,98133.59
2023-06-17T15:41:51.527Z,98122.28
2023-06-17T15:44:18.172Z,98123.97
2023-06-17T15:46:45.227Z,98115.41
2023-06-17T15:49:12.418Z,98121.81
2023-06-17T15:51:39.462Z,98124.13
2023-06-17T15:54:06.818Z,98127.66
2023-06-17T15:56:35.754Z,98137.16
2023-06-17T15:59:02.708Z,98129.91
2023-06-17T16:01:29.540Z,98136.59
2023-06-17T16:03:57.990Z,98136.31
2023-06-17T16:06:24.606Z,98136.38
2023-06-17T16:08:52.555Z,98139.16
2023-06-17T16:11:19.736Z,98140.25
2023-06-17T16:13:46.377Z,98142.22
2023-06-17T16:16:13.171Z,98138.28
2023-06-17T16:18:39.925Z,98143.41
2023-06-17T16:21:06.483Z,98136.56
2023-06-17T16:23:33.064Z,98137.97
2023-06-17T16:26:00.322Z,98138.78
2023-06-17T16:28:27.006Z,98139.44
2023-06-17T16:30:53.546Z,98146.09
2023-06-17T16:33:20.214Z,98141.69
2023-06-17T16:35:46.942Z,98148.41
2023-06-17T16:38:13.654Z,98139.84
2023-06-17T16:40:40.277Z,98141.41
2023-06-17T16:43:07.061Z,98147.72
2023-06-17T16:45:33.650Z,98152.34
2023-06-17T16:48:00.358Z,98158.13
2023-06-17T16:50:27.120Z,98154.38
2023-06-17T16:52:53.887Z,98152.13
2023-06-17T16:55:20.607Z,98157.97
2023-06-17T16:57:47.246Z,98162.50
2023-06-17T17:00:14.126Z,98163.13
2023-06-17T17:02:40.846Z,98166.34
2023-06-17T17:05:08.362Z,98168.66
2023-06-17T17:07:35.045Z,98159.97
2023-06-17T17:10:01.768Z,98172.28
2023-06-17T17:12:28.412Z,98167.09
2023-06-17T17:14:56.799Z,98167.72
2023-06-17T17:17:23.589Z,98160.56
2023-06-17T17:19:50.350Z,98162.59
2023-06-17T17:22:17.294Z,98169.50
2023-06-17T17:24:44.614Z,98168.97
2023-06-17T17:27:11.650Z,98169.22
2023-06-17T17:29:38.363Z,98169.09
2023-06-17T17:32:05.739Z,98168.47
2023-06-17T17:34:32.320Z,98173.47
2023-06-17T17:36:58.917Z,98184.91
2023-06-17T17:39:25.438Z,98177.41
2023-06-17T17:41:52.006Z,98180.78
2023-06-17T17:44:18.594Z,98179.22
2023-06-17T17:46:45.197Z,98182.53
2023-06-17T17:49:11.806Z,98188.72
2023-06-17T17:51:38.424Z,98190.44
2023-06-17T17:54:05.108Z,98186.56
2023-06-17T17:56:32.340Z,98184.59
2023-06-17T17:58:59.265Z,98195.09
2023-06-17T18:01:26.307Z,98196.69
2023-06-17T18:03:53.442Z,98189.00
2023-06-17T18:06:20.252Z,98197.03
2023-06-17T18:08:46.962Z,98189.00
2023-06-17T18:11:14.726Z,98200.69
2023-06-17T18:13:41.400Z,98196.06
2023-06-17T18:16:08.202Z,98194.13
2023-06-17T18:18:34.956Z,98195.34
2023-06-17T18:21:01.657Z,98206.06
2023-06-17T18:23:28.442Z,98200.09
2023-06-17T18:25:57.073Z,98203.88
2023-06-17T18:28:23.829Z,98203.75
2023-06-17T18:30:50.546Z,98201.91
2023-06-17T18:33:17.296Z,98202.38
2023-06-17T18:35:44.021Z,98204.06
2023-06-17T18:38:10.719Z,98199.34
2023-06-17T18:40:37.388Z,98203.00
2023-06-17T18:43:03.912Z,98200.16
2023-06-17T18:45:30.811Z,98201.72
2023-06-17T18:47:57.516Z,98198.78
2023-06-17T18:50:24.553Z,98205.97
2023-06-17T18:52:51.278Z,98200.69
2023-06-17T18:55:18.654Z,98203.22
2023-06-17T18:57:45.446Z,98210.66
2023-06-17T19:00:12.688Z,98209.47
2023-06-17T19:02:39.405Z,98199.66
2023-06-17T19:05:07.195Z,98206.16
2023-06-17T19:07:34.570Z,98201.91
2023-06-17T19:10:01.207Z,98211.34
2023-06-17T19:12:32.033Z,98214.16
2023-06-17T19:14:59.133Z,98209.50
2023-06-17T19:17:26.814Z,98213.47
2023-06-17T19:19:53.722Z,98207.81
2023-06-17T19:22:20.572Z,98219.56
2023-06-17T19:24:47.252Z,98217.44
2023-06-17T19:27:13.909Z,98225.13
2023-06-17T19:29:40.674Z,98229.00
2023-06-17T19:32:07.595Z,98225.13
2023-06-17T19:34:34.230Z,98224.19
2023-06-17T19:37:00.925Z,98226.41
2023-06-17T19:39:27.402Z,98225.00
2023-06-17T19:41:53.986Z,98226.59
2023-06-17T19:44:20.620Z,98230.50
2023-06-17T19:46:47.351Z,98230.78
2023-06-17T19:49:14.237Z,98232.25
2023-06-17T19:51:40.878Z,98238.31
2023-06-17T19:54:07.542Z,98238.16
2023-06-17T19:56:34.380Z,98231.41
2023-06-17T19:59:01.074Z,98235.22
2023-06-17T20:01:29.141Z,98234.69
2023-06-17T20:03:55.981Z,98244.22
2023-06-17T20:06:24.235Z,98249.66
2023-06-17T20:08:52.276Z,98253.38
2023-06-17T20:11:20.593Z,98247.59
2023-06-17T20:13:47.260Z,98248.25
2023-06-17T20:16:14.018Z,98249.69
2023-06-17T20:18:40.605Z,98245.69
2023-06-17T20:21:07.170Z,98253.97
2023-06-17T20:23:33.826Z,98250.91
2023-06-17T20:26:00.644Z,98256.91
2023-06-17T20:28:27.239Z,98253.66
2023-06-17T20:30:53.893Z,98263.09
2023-06-17T20:33:20.546Z,98263.59
2023-06-17T20:35:47.202Z,98271.16
2023-06-17T20:38:13.867Z,98256.31
2023-06-17T20:40:40.696Z,98261.03
2023-06-17T20:43:09.175Z,98261.78
2023-06-17T20:45:35.907Z,98260.59
2023-06-17T20:48:02.698Z,98257.84
2023-06-17T20:50:30.162Z,98253.38
2023-06-17T20:52:58.297Z,98255.69
2023-06-17T20:55:31.872Z,98262.53
2023-06-17T20:57:58.696Z,98255.94
2023-06-17T21:00:25.388Z,98254.69
2023-06-17T21:02:52.305Z,98254.34
2023-06-17T21:05:19.132Z,98255.63
2023-06-17T21:07:45.911Z,98258.63
2023-06-17T21:10:13.214Z,98258.13
2023-06-17T21:12:39.852Z,98261.63
2023-06-17T21:15:07.716Z,98262.16
2023-06-17T21:17:34.411Z,98256.09
2023-06-17T21:20:01.188Z,98259.88
2023-06-17T21:22:27.762Z,98265.97
2023-06-17T21:24:54.326Z,98264.78
2023-06-17T21:27:21.274Z,98262.28
2023-06-17T21:29:48.028Z,98261.56
2023-06-17T21:32:14.796Z,98253.44
2023-06-17T21:34:41.339Z,98258.84
2023-06-17T21:37:07.882Z,98256.34
2023-06-17T21:39:34.468Z,98263.53
2023-06-17T21:42:01.094Z,98261.91
2023-06-17T21:44:28.078Z,98256.56
2023-06-17T21:46:54.572Z,98257.84
2023-06-17T21:49:21.241Z,98259.22
2023-06-17T21:51:47.877Z,98261.34
2023-06-17T21:54:14.915Z,98267.69
2023-06-17T21:56:41.477Z,98267.75
2023-06-17T21:59:08.925Z,98265.34
2023-06-17T22:01:36.115Z,98265.22
2023-06-17T22:04:02.800Z,98268.28
2023-06-17T22:06:29.525Z,98265.34
2023-06-17T22:08:56.333Z,98267.88
2023-06-17T22:11:23.188Z,98265.66
2023-06-17T22:13:52.450Z,98264.09
2023-06-17T22:16:19.393Z,98259.84
2023-06-17T22:18:46.141Z,98258.16
2023-06-17T22:21:12.845Z,98260.66
2023-06-17T22:23:39.444Z,98259.44
2023-06-17T22:26:06.145Z,98260.03
2023-06-17T22:28:32.858Z,98252.56
2023-06-17T22:31:01.825Z,98253.63
2023-06-17T22:33:28.343Z,98250.13
2023-06-17T22:35:54.943Z,98259.41
2023-06-17T22:38:21.440Z,98263.16
2023-06-17T22:40:48.002Z,98262.53
2023-06-17T22:43:16.158Z,98267.22
2023-06-17T22:45:43.095Z,98262.38
2023-06-17T22:48:09.782Z,98257.13
2023-06-17T22:50:36.534Z,98265.69
2023-06-17T22:53:03.530Z,98255.00
2023-06-17T22:55:30.235Z,98265.69
2023-06-17T22:57:56.694Z,98265.31
2023-06-17T23:00:23.548Z,98267.03
2023-06-17T23:02:50.538Z,98271.19
2023-06-17T23:05:17.177Z,98265.25
2023-06-17T23:07:43.695Z,98273.81
2023-06-17T23:10:11.942Z,98269.00
2023-06-17T23:12:38.597Z,98262.34
2023-06-17T23:15:05.604Z,98262.88
2023-06-17T23:17:32.218Z,98254.59
2023-06-17T23:20:01.501Z,98266.34
2023-06-17T23:22:28.546Z,98265.59
2023-06-17T23:24:55.309Z,98258.75
2023-06-17T23:27:27.896Z,98261.75
2023-06-17T23:29:55.385Z,98254.03
2023-06-17T23:32:23.130Z,98256.81
2023-06-17T23:34:50.457Z,98261.34
2023-06-17T23:37:19.224Z,98268.63
2023-06-17T23:39:46.193Z,98260.69
2023-06-17T23:42:12.933Z,98269.47
2023-06-17T23:44:40.584Z,98272.19
2023-06-17T23:47:10.248Z,98269.75
2023-06-17T23:49:39.477Z,98261.44
2023-06-17T23:52:09.301Z,98265.31
2023-06-17T23:54:35.906Z,98269.69
2023-06-17T23:57:02.758Z,98269.59
2023-06-17T23:59:33.626Z,98269.75
